Warning: Javascript must be enabled to use all the features on this page!


Page Loading - Please Wait...

Click to hideNews Bulletins

Peak Streamflow for the Nation

USGS 05355200 CANNON RIVER AT WELCH, MN

Goodhue County, Minnesota
Hydrologic Unit Code 07040002
Latitude  44°33'50", Longitude  92°43'55" NAD27
Drainage area 1,340  square miles
Gage datum 699.66 feet above NAVD88
Output formats
Table
Graph
Tab-separated file
peakfq (watstore) format
Reselect output format
Water
Year
Date Gage
Height
(feet)
Stream-
flow
(cfs)
1911 1911-06-04 6.903 701
1912 1911-10-17 12.853 5,300
1913 1913-03-24 10.403 3,120
1931 1931-06-24 4.923 1,190
1932 1932-04-07 7.502,3 4,270
1933 1933-01-22 11.443 10,500
1934 1934-04-03 7.383 3,980
1935 1935-08-08 8.223 4,290
1936 1936-03-23 12.043 11,300
1937 1937-03-04 7.241,3 2,690
1938 1938-09-10 8.553 5,940
1939 1939-03-23 11.14 10,800
1940 1940-07-11 5.612 2,330
1941 1941-03-29 8.33 5,510
1942 1942-09-18 9.99 8,230
1943 1943-03-27 8.76 6,240
1944 1944-05-04 10.85 9,980
1945 1945-03-14 10.33 8,840
1946 1946-03-14 7.52 4,470
1947 1947-04-11 8.68 6,090
1948 1948-03-20 11.771 9,050
1949 1949-03-24 8.11 5,230
1950 1950-03-27 10.17 9,200
1951 1951-07-21 11.68 14,600
1952 1952-04-02 12.00 15,800
1953 1953-07-25 7.44 4,200
1954 1954-06-20 11.30 13,200
1955 1955-07-08 9.59 8,150
1956 1956-04-03 7.28 4,800
1957 1957-08-14 8.11 5,840
1958 1958-06-04 7.27 4,780
1959 1959-06-26 6.80 4,220
1960 1960-05-23 10.16 9,420
1961 1961-03-26 7.47 5,020
1962 1962-03-30 9.20 6,900
1963 1963-07-16 4.67 1,780
1964 1964-09-09 4.50 1,660
1965 1965-04-08 14.01 36,100
1966 1966-02-10 13.931 20,800
1967 1967-03-25 10.58 10,000
1968 1968-07-14 6.75 3,380
1969 1969-04-05 10.29 9,370
1970 1970-05-28 9.92 6,480
1971 1971-04-01 9.03 6,700
1972 1972-03-20 6.63 3,490
1973 1973-05-03 10.71 10,500
1974 1974-04-06 6.52 3,390
1975 1975-04-29 9.23 7,000
1976 1976-03-12 6.91 3,780
1977 1977-03-12 4.41 1,590
1978 1978-07-01 10.80 10,600
1979 1979-08-30 9.60 7,700
1980 1980-03-20 10.37 9,350
1981 1981-08-29 7.08 4,000
1982 1982-05-31 7.10 3,980
1983 1983-07-04 9.70 7,800
1984 1984-05-05 8.40 5,740
1985 1985-03-14 8.93 6,500
1986 1986-09-22 13.80 19,000
1987 1986-10-14 7.22 4,200
1992 1991-11-25 6.62 3,950
1993 1993-06-17 13.19 17,200
1994 1994-04-30 6.01 2,870
1995 1994-10-10 5.81 2,340
1996 1996-03-31 7.56 4,700
1997 1997-07-26 10.33 8,670
1998 1998-06-27 15.05 23,500
1999 1999-05-23 9.22 6,920
2000 2000-06-02 8.61 5,970
2001 2001-04-12 11.43 11,900
2002 2002-06-22 9.21 6,120
2003 2003-05-13 8.04 5,410
2004 2004-06-12 10.72 10,100
2005 2005-06-09 8.04 5,160
2006 2006-04-03 8.12 5,100
2007 2007-03-14 10.03 8,940
2008 2007-10-05 8.41 5,850
2009 2009-02-11 4.882 1,460
2010 2010-09-25 14.37 20,500
2011 2011-03-23 11.49 10,600
2012 2012-06-15 14.35 19,500
2013 2013-03-31 12.02 11,400
2014 2014-06-20 12.31 12,000
2015 2015-07-07 6.30 2,270
2016 2016-09-24 12.68 13,000
2017 2017-05-18 9.38 6,260
2018 2018-09-06 8.83 5,400
2019 2019-03-15 12.13 11,700
2020 2019-10-07 10.66 8,540
?
  Peak Gage-Height Qualification Codes.